Allendale, Indiana
Current Conditions -  °F | °C
As of 10:53 AM on Thursday 27 Nov 2014 (Local Time) from KHUF Reporting Station
Haze Haze  
Wind Chill: 17°   Ceiling: 6500
Heat Index: 28°   Visibility: 6mi
Dew Point: 20°   Wind: 15mph
Humidity: 72%   Direction: 300°WNW
Pressure: 30.39"   Gusts: NA
Location:  39.3587°N, 87.4056°W
Report Text: KHUF 271553Z 30013KT 6SM HZ FEW018 FEW044 OVC065 M02/M07 A3039 RMK AO2 SLP298 T10221067
Loading
Personal Weather Stations






























Interactive Weather Map New forecast layout! Learn more

10-Day Weather Forecast

Advertisements
Track Severe Weather on mobile